Time;durP1;ratioP1;P1;durP2;ratioP2;P2;SDS_P1;SDS_P2;PMS_P1;PMS_P2;Temp;Humidity;BMP_temperature;BMP_pressure;BME280_temperature;BME280_humidity;BME280_pressure;Samples;Min_cycle;Max_cycle;Signal;HPM_P1;HPM_P2
2021/07/19 00:00:52;;;;;;;;;;;;;;;25.46;62.23;99896.54;453098;116;922582;-72
2021/07/19 00:01:56;;;;;;;;;;;;;;;25.44;62.24;99893.25;452994;115;923772;-71
2021/07/19 00:03:00;;;;;;;;;;;;;;;25.42;62.35;99895.53;453710;115;921483;-71
2021/07/19 00:04:04;;;;;;;;;;;;;;;25.38;62.43;99886.19;453163;115;921505;-72
2021/07/19 00:05:08;;;;;;;;;;;;;;;25.33;62.51;99888.01;453296;115;921500;-71
2021/07/19 00:06:11;;;;;;;;;;;;;;;25.29;62.59;99892.61;452764;115;921572;-71
2021/07/19 00:07:14;;;;;;;;;;;;;;;25.25;62.68;99883.23;453988;115;921450;-71
2021/07/19 00:08:18;;;;;;;;;;;;;;;25.21;62.79;99885.05;453494;115;921408;-73
2021/07/19 00:09:22;;;;;;;;;;;;;;;25.17;62.88;99884.08;454308;115;921331;-73
2021/07/19 00:10:25;;;;;;;;;;;;;;;25.15;62.99;99883.58;453993;115;921406;-73
2021/07/19 00:11:29;;;;;;;;;;;;;;;25.12;63.08;99889.83;454119;115;921984;-73
2021/07/19 00:12:32;;;;;;;;;;;;;;;25.10;63.14;99883.74;454215;115;921546;-73
2021/07/19 00:13:36;;;;;;;;;;;;;;;25.08;63.24;99888.84;454580;115;921492;-73
2021/07/19 00:14:39;;;;;;;;;;;;;;;25.06;63.30;99891.14;455368;114;921463;-73
2021/07/19 00:15:42;;;;;;;;;;;;;;;25.05;63.33;99885.88;454386;117;921475;-72
2021/07/19 00:16:46;;;;;;;;;;;;;;;25.03;63.37;99888.98;454816;115;921419;-72
2021/07/19 00:17:50;;;;;;;;;;;;;;;25.02;63.45;99890.16;454202;115;922843;-73
2021/07/19 00:18:53;;;;;;;;;;;;;;;25.01;63.53;99885.72;454829;115;922708;-74
2021/07/19 00:19:56;;;;;;;;;;;;;;;25.00;63.56;99891.62;454144;115;922686;-71
2021/07/19 00:21:00;;;;;;;;;;;;;;;24.98;63.62;99896.69;444755;117;922600;-72
2021/07/19 00:22:04;;;;;;;;;;;;;;;24.96;63.68;99891.46;444849;118;922686;-71
2021/07/19 00:23:07;;;;;;;;;;;;;;;24.95;63.74;99892.60;454576;115;922724;-73
2021/07/19 00:24:10;;;;;;;;;;;;;;;24.96;63.77;99899.00;454188;115;922543;-73
2021/07/19 00:25:14;;;;;;;;;;;;;;;24.96;63.71;99894.25;455087;115;922686;-72
2021/07/19 00:26:19;;;;;;;;;;;;;;;24.95;63.69;99887.03;454829;115;922658;-73
2021/07/19 00:27:22;;;;;;;;;;;;;;;24.95;63.71;99892.60;454861;115;923125;-73
2021/07/19 00:28:26;;;;;;;;;;;;;;;24.93;63.78;99895.71;455572;115;922524;-73
2021/07/19 00:29:29;;;;;;;;;;;;;;;24.92;63.77;99896.85;454828;114;922691;-73
2021/07/19 00:30:36;;;;;;;;;;;;;;;24.91;63.75;99895.23;454980;115;923144;-73
2021/07/19 00:31:38;;;;;;;;;;;;;;;24.90;63.78;99901.13;455304;115;922672;-72
2021/07/19 00:32:42;;;;;;;;;;;;;;;24.89;63.77;99899.48;455956;115;922702;-73
2021/07/19 00:33:45;;;;;;;;;;;;;;;24.87;63.74;99896.16;455421;115;922684;-72
2021/07/19 00:34:48;;;;;;;;;;;;;;;24.82;63.75;99896.31;455687;115;922504;-73
2021/07/19 00:35:51;;;;;;;;;;;;;;;24.80;63.83;99893.05;454706;115;922652;-73
2021/07/19 00:36:54;;;;;;;;;;;;;;;24.79;63.91;99899.77;456080;116;922130;-73
2021/07/19 00:37:59;;;;;;;;;;;;;;;24.77;63.96;99894.52;448513;118;921569;-74
2021/07/19 00:39:04;;;;;;;;;;;;;;;24.77;64.00;99894.52;448545;117;921578;-75
2021/07/19 00:40:09;;;;;;;;;;;;;;;24.76;64.03;99895.66;443040;117;921478;-72
2021/07/19 00:41:13;;;;;;;;;;;;;;;24.75;64.08;99896.00;442451;120;922727;-72
2021/07/19 00:42:16;;;;;;;;;;;;;;;24.73;64.11;99898.28;449747;118;923203;-72
2021/07/19 00:43:20;;;;;;;;;;;;;;;24.71;64.15;99897.77;449267;116;922613;-71
2021/07/19 00:44:23;;;;;;;;;;;;;;;24.70;64.17;99901.73;448608;115;921687;-71
2021/07/19 00:45:28;;;;;;;;;;;;;;;24.69;64.23;99902.87;448111;116;922685;-71
2021/07/19 00:46:32;;;;;;;;;;;;;;;24.69;64.26;99897.30;448939;118;921516;-71
2021/07/19 00:47:35;;;;;;;;;;;;;;;24.68;64.22;99904.84;443644;118;922697;-71
2021/07/19 00:48:39;;;;;;;;;;;;;;;24.68;64.20;99901.23;455294;116;922693;-71
2021/07/19 00:49:43;;;;;;;;;;;;;;;24.66;64.23;99901.55;454713;113;922560;-71
2021/07/19 00:50:46;;;;;;;;;;;;;;;24.65;64.23;99899.89;454568;116;921441;-73
2021/07/19 00:51:50;;;;;;;;;;;;;;;24.63;64.26;99893.84;454694;115;922083;-71
2021/07/19 00:52:59;;;;;;;;;;;;;;;24.61;64.35;99904.48;455596;115;921477;-71
2021/07/19 00:54:03;;;;;;;;;;;;;;;24.60;64.37;99900.05;455090;115;921476;-72
2021/07/19 00:55:08;;;;;;;;;;;;;;;24.59;64.49;99894.83;455738;115;921643;-72
2021/07/19 00:56:12;;;;;;;;;;;;;;;24.59;64.53;99906.77;455104;115;921618;-72
2021/07/19 00:57:17;;;;;;;;;;;;;;;24.58;64.56;99899.58;455685;116;921517;-72
2021/07/19 00:58:22;;;;;;;;;;;;;;;24.58;64.57;99905.15;456016;115;921652;-72
2021/07/19 00:59:29;;;;;;;;;;;;;;;24.58;64.57;99907.11;444579;117;922013;-72
2021/07/19 01:00:34;;;;;;;;;;;;;;;24.58;64.63;99890.39;443513;117;921614;-72
2021/07/19 01:01:39;;;;;;;;;;;;;;;24.58;64.71;99901.53;442144;115;921587;-72
2021/07/19 01:02:45;;;;;;;;;;;;;;;24.60;64.69;99902.02;445131;118;921602;-72
2021/07/19 01:03:50;;;;;;;;;;;;;;;24.58;64.67;99893.17;443416;120;921579;-73
2021/07/19 01:04:55;;;;;;;;;;;;;;;24.57;64.68;99900.72;450273;116;921661;-72
2021/07/19 01:06:00;;;;;;;;;;;;;;;24.57;64.74;99905.47;455875;116;921773;-72
2021/07/19 01:07:06;;;;;;;;;;;;;;;24.58;64.78;99902.36;455042;115;921550;-71
2021/07/19 01:08:11;;;;;;;;;;;;;;;24.59;64.78;99900.39;455397;115;921496;-72
2021/07/19 01:09:14;;;;;;;;;;;;;;;24.58;64.80;99902.36;455853;115;921690;-72
2021/07/19 01:10:18;;;;;;;;;;;;;;;24.59;64.74;99894.83;455224;117;922620;-73
2021/07/19 01:11:24;;;;;;;;;;;;;;;24.59;64.74;99905.97;448372;115;922937;-72
2021/07/19 01:12:28;;;;;;;;;;;;;;;24.57;64.74;99897.10;449057;117;921579;-73
2021/07/19 01:13:34;;;;;;;;;;;;;;;24.56;64.78;99903.81;455353;115;922749;-72
2021/07/19 01:14:37;;;;;;;;;;;;;;;24.53;64.81;99903.30;456136;115;921472;-72
2021/07/19 01:15:41;;;;;;;;;;;;;;;24.53;64.81;99897.73;456219;115;922681;-73
2021/07/19 01:16:46;;;;;;;;;;;;;;;24.53;64.82;99904.48;455634;117;922667;-72
2021/07/19 01:17:52;;;;;;;;;;;;;;;24.50;64.85;99898.39;455414;115;924248;-71
2021/07/19 01:18:55;;;;;;;;;;;;;;;24.50;64.86;99903.14;456324;115;922693;-73
2021/07/19 01:19:59;;;;;;;;;;;;;;;24.49;64.91;99896.75;456041;116;922470;-72
2021/07/19 01:21:06;;;;;;;;;;;;;;;24.46;65.04;99902.98;455317;117;922760;-72
2021/07/19 01:22:32;;;;;;;;;;;;;;;24.46;65.24;99908.55;455914;115;922722;-72
2021/07/19 01:23:44;;;;;;;;;;;;;;;24.45;65.42;99901.33;451397;116;922664;-72
2021/07/19 01:24:50;;;;;;;;;;;;;;;24.42;65.62;99904.75;455959;115;922700;-72
2021/07/19 01:26:04;;;;;;;;;;;;;;;24.41;65.72;99897.56;456220;116;922693;-72
2021/07/19 01:27:09;;;;;;;;;;;;;;;24.41;65.85;99900.34;456428;117;923118;-73
2021/07/19 01:28:17;;;;;;;;;;;;;;;24.40;65.96;99901.48;451540;116;922654;-72
2021/07/19 01:29:21;;;;;;;;;;;;;;;24.39;66.08;99901.80;443164;118;922744;-72
2021/07/19 01:30:27;;;;;;;;;;;;;;;24.37;66.17;99904.90;435949;118;922766;-73
2021/07/19 01:31:32;;;;;;;;;;;;;;;24.37;66.27;99902.11;437664;120;923177;-73
2021/07/19 01:32:38;;;;;;;;;;;;;;;24.37;66.38;99904.90;443473;118;922721;-73
2021/07/19 01:33:44;;;;;;;;;;;;;;;24.37;66.48;99901.28;445519;117;922649;-73
2021/07/19 01:34:50;;;;;;;;;;;;;;;24.36;66.55;99908.86;441026;116;922691;-72
2021/07/19 01:35:55;;;;;;;;;;;;;;;24.34;66.68;99899.98;450291;116;922747;-71
2021/07/19 01:36:59;;;;;;;;;;;;;;;24.34;66.79;99897.20;445093;117;921492;-72
2021/07/19 01:38:06;;;;;;;;;;;;;;;24.32;66.88;99901.44;444696;117;923133;-72
2021/07/19 01:39:11;;;;;;;;;;;;;;;24.31;66.94;99900.64;452455;116;923422;-72
2021/07/19 01:40:16;;;;;;;;;;;;;;;24.30;66.95;99906.53;444731;118;921933;-72
2021/07/19 01:41:21;;;;;;;;;;;;;;;24.30;67.01;99904.56;444974;117;923137;-72
2021/07/19 01:42:25;;;;;;;;;;;;;;;24.30;67.06;99907.36;453089;116;923105;-71
2021/07/19 01:43:29;;;;;;;;;;;;;;;24.30;67.04;99910.14;442817;118;922688;-72
2021/07/19 01:44:34;;;;;;;;;;;;;;;24.29;67.06;99910.45;448571;114;922705;-72
2021/07/19 01:45:39;;;;;;;;;;;;;;;24.29;67.10;99907.67;449084;115;922667;-73
2021/07/19 01:46:43;;;;;;;;;;;;;;;24.29;67.09;99918.81;449243;116;922622;-72
2021/07/19 01:47:49;;;;;;;;;;;;;;;24.29;67.08;99914.06;449463;118;921456;-73
2021/07/19 01:48:54;;;;;;;;;;;;;;;24.30;67.13;99914.89;449659;114;921571;-74
2021/07/19 01:49:58;;;;;;;;;;;;;;;24.32;67.10;99913.41;449693;117;921490;-71
2021/07/19 01:51:02;;;;;;;;;;;;;;;24.34;67.07;99913.92;444005;118;921722;-72
2021/07/19 01:52:08;;;;;;;;;;;;;;;24.37;66.97;99918.00;441160;117;921517;-74
2021/07/19 01:53:12;;;;;;;;;;;;;;;24.39;66.87;99918.52;454099;115;921433;-72
2021/07/19 01:54:15;;;;;;;;;;;;;;;24.40;66.81;99911.80;455405;115;921519;-72
2021/07/19 01:55:19;;;;;;;;;;;;;;;24.40;66.76;99920.98;454485;115;923091;-71
2021/07/19 01:56:23;;;;;;;;;;;;;;;24.39;66.75;99919.34;453484;115;922528;-71
2021/07/19 01:57:28;;;;;;;;;;;;;;;24.40;66.67;99918.20;453554;115;922664;-70
2021/07/19 01:58:33;;;;;;;;;;;;;;;24.40;66.62;99917.37;453353;115;922754;-70
2021/07/19 01:59:38;;;;;;;;;;;;;;;24.39;66.59;99913.77;453861;116;924192;-70
2021/07/19 02:00:50;;;;;;;;;;;;;;;24.40;66.58;99914.59;452856;117;922630;-70
2021/07/19 02:01:54;;;;;;;;;;;;;;;24.38;66.53;99923.27;454048;115;921482;-71
2021/07/19 02:02:58;;;;;;;;;;;;;;;24.38;66.51;99919.66;454058;115;921516;-71
2021/07/19 02:04:03;;;;;;;;;;;;;;;24.39;66.46;99918.52;454720;116;922723;-71
2021/07/19 02:05:07;;;;;;;;;;;;;;;24.38;66.42;99917.69;454616;116;923156;-71
2021/07/19 02:06:12;;;;;;;;;;;;;;;24.39;66.38;99924.09;450477;117;921470;-71
2021/07/19 02:07:18;;;;;;;;;;;;;;;24.39;66.36;99918.52;450808;116;922735;-73
2021/07/19 02:08:24;;;;;;;;;;;;;;;24.39;66.22;99918.52;454676;115;922666;-73
2021/07/19 02:09:35;;;;;;;;;;;;;;;24.39;66.10;99930.48;448495;115;922610;-73
2021/07/19 02:10:53;;;;;;;;;;;;;;;24.41;65.94;99921.81;454080;115;922744;-72
2021/07/19 02:11:59;;;;;;;;;;;;;;;24.42;65.80;99931.82;454110;115;925356;-72
2021/07/19 02:13:08;;;;;;;;;;;;;;;24.44;65.72;99935.91;454400;116;922745;-72
2021/07/19 02:14:13;;;;;;;;;;;;;;;24.46;65.62;99932.81;451077;118;922747;-70
2021/07/19 02:15:19;;;;;;;;;;;;;;;24.47;65.51;99932.50;455106;115;923207;-72
2021/07/19 02:16:24;;;;;;;;;;;;;;;24.47;65.36;99932.50;454772;115;923396;-74
2021/07/19 02:17:29;;;;;;;;;;;;;;;24.47;65.40;99935.28;454512;115;922707;-76
2021/07/19 02:18:33;;;;;;;;;;;;;;;24.47;65.35;99932.50;443202;118;923279;-71
2021/07/19 02:19:38;;;;;;;;;;;;;;;24.45;65.31;99934.78;453562;115;922222;-71
2021/07/19 02:20:44;;;;;;;;;;;;;;;24.43;65.32;99933.44;452468;117;923129;-72
2021/07/19 02:21:49;;;;;;;;;;;;;;;24.39;65.32;99936.06;446470;118;921627;-71
2021/07/19 02:23:05;;;;;;;;;;;;;;;24.36;65.34;99933.94;444819;115;922681;-72
2021/07/19 02:24:26;;;;;;;;;;;;;;;24.32;65.44;99934.88;428780;122;922796;-71
2021/07/19 02:25:50;;;;;;;;;;;;;;;24.28;65.42;99937.48;446317;116;921463;-70
2021/07/19 02:26:56;;;;;;;;;;;;;;;24.25;65.42;99935.36;450972;116;922681;-71
2021/07/19 02:28:00;;;;;;;;;;;;;;;24.23;65.41;99932.06;451552;115;922663;-71
2021/07/19 02:29:04;;;;;;;;;;;;;;;24.19;65.36;99936.64;451364;116;922674;-71
2021/07/19 02:30:09;;;;;;;;;;;;;;;24.17;65.38;99938.88;450940;115;922787;-71
2021/07/19 02:31:15;;;;;;;;;;;;;;;24.18;65.41;99934.99;450910;116;923856;-71
2021/07/19 02:32:19;;;;;;;;;;;;;;;24.16;65.46;99931.66;445267;118;921450;-72
2021/07/19 02:33:25;;;;;;;;;;;;;;;24.16;65.49;99940.02;444087;118;921464;-71
2021/07/19 02:34:30;;;;;;;;;;;;;;;24.17;65.53;99938.06;443614;118;921505;-73
2021/07/19 02:35:35;;;;;;;;;;;;;;;24.17;65.53;99941.67;446343;118;921604;-73
2021/07/19 02:36:39;;;;;;;;;;;;;;;24.17;65.50;99936.09;446187;117;921447;-72
2021/07/19 02:37:44;;;;;;;;;;;;;;;24.17;65.54;99935.27;444075;118;921590;-72
2021/07/19 02:38:51;;;;;;;;;;;;;;;24.18;65.60;99943.34;443198;118;921658;-73
2021/07/19 02:39:56;;;;;;;;;;;;;;;24.17;65.70;99938.88;454796;115;921604;-73
2021/07/19 02:41:00;;;;;;;;;;;;;;;24.18;65.68;99943.34;451247;114;921492;-73
2021/07/19 02:42:06;;;;;;;;;;;;;;;24.18;65.70;99943.34;452796;118;921449;-72
2021/07/19 02:43:10;;;;;;;;;;;;;;;24.19;65.70;99945.00;452945;116;921515;-73
2021/07/19 02:44:14;;;;;;;;;;;;;;;24.21;65.70;99950.23;455660;115;921457;-72
2021/07/19 02:45:20;;;;;;;;;;;;;;;24.22;65.74;99949.09;454347;115;921618;-71
2021/07/19 02:46:27;;;;;;;;;;;;;;;24.20;65.69;99946.65;456459;115;924815;-71
2021/07/19 02:47:30;;;;;;;;;;;;;;;24.18;65.67;99940.56;455796;116;922655;-73
2021/07/19 02:48:36;;;;;;;;;;;;;;;24.17;65.58;99950.02;447805;117;922746;-73
2021/07/19 02:49:40;;;;;;;;;;;;;;;24.17;65.55;99954.77;447224;117;922717;-73
2021/07/19 02:50:44;;;;;;;;;;;;;;;24.16;65.54;99942.80;456210;115;921429;-74
2021/07/19 02:51:50;;;;;;;;;;;;;;;24.15;65.53;99952.30;455823;115;921647;-74
2021/07/19 02:52:55;;;;;;;;;;;;;;;24.15;65.50;99957.88;456351;115;922756;-72
2021/07/19 02:53:59;;;;;;;;;;;;;;;24.16;65.44;99948.37;455251;115;922711;-74
2021/07/19 02:55:04;;;;;;;;;;;;;;;24.17;65.42;99951.98;455477;117;922295;-74
2021/07/19 02:56:09;;;;;;;;;;;;;;;24.17;65.38;99950.02;455893;116;923474;-75
2021/07/19 02:57:13;;;;;;;;;;;;;;;24.18;65.34;99950.88;456142;116;922699;-75
2021/07/19 02:58:18;;;;;;;;;;;;;;;24.17;65.39;99952.81;454847;115;922679;-74
2021/07/19 02:59:21;;;;;;;;;;;;;;;24.16;65.45;99953.95;455452;117;923174;-74
2021/07/19 03:00:28;;;;;;;;;;;;;;;24.18;65.52;99951.70;455157;113;923563;-74
2021/07/19 03:01:34;;;;;;;;;;;;;;;24.18;65.60;99957.28;456152;115;922606;-73
2021/07/19 03:02:40;;;;;;;;;;;;;;;24.19;65.71;99952.53;455551;115;922686;-74
2021/07/19 03:03:45;;;;;;;;;;;;;;;24.19;65.79;99958.92;456060;115;922580;-74
2021/07/19 03:04:51;;;;;;;;;;;;;;;24.20;65.84;99957.80;454812;115;922713;-73
2021/07/19 03:05:56;;;;;;;;;;;;;;;24.20;65.88;99955.01;442741;120;922739;-73
2021/07/19 03:07:00;;;;;;;;;;;;;;;24.20;65.91;99955.01;452584;115;922860;-72
2021/07/19 03:08:05;;;;;;;;;;;;;;;24.20;65.95;99955.01;445664;117;921541;-73
2021/07/19 03:09:31;;;;;;;;;;;;;;;24.19;66.00;99958.92;443777;118;922720;-73
2021/07/19 03:10:35;;;;;;;;;;;;;;;24.19;65.96;99956.14;453049;116;921944;-72
2021/07/19 03:11:40;;;;;;;;;;;;;;;24.21;66.03;99964.98;444926;117;922088;-72
2021/07/19 03:12:46;;;;;;;;;;;;;;;24.22;66.03;99963.02;437944;119;923178;-72
2021/07/19 03:13:57;;;;;;;;;;;;;;;24.23;66.09;99964.67;436491;118;921839;-73
2021/07/19 03:15:01;;;;;;;;;;;;;;;24.23;66.00;99962.70;455857;115;921502;-72
2021/07/19 03:16:05;;;;;;;;;;;;;;;24.24;66.02;99967.14;456024;114;921660;-72
2021/07/19 03:17:10;;;;;;;;;;;;;;;24.25;65.97;99967.97;446347;117;921541;-72
2021/07/19 03:18:15;;;;;;;;;;;;;;;24.25;66.03;99968.80;447438;117;921650;-73
2021/07/19 03:19:20;;;;;;;;;;;;;;;24.26;65.98;99969.62;456643;117;921469;-71
2021/07/19 03:20:25;;;;;;;;;;;;;;;24.25;66.05;99963.22;456569;115;922778;-74
2021/07/19 03:21:30;;;;;;;;;;;;;;;24.27;66.07;99960.09;455639;115;922585;-73
2021/07/19 03:22:39;;;;;;;;;;;;;;;24.28;66.11;99967.31;454189;116;921480;-72
2021/07/19 03:23:51;;;;;;;;;;;;;;;24.28;66.05;99965.35;453655;115;921556;-71
2021/07/19 03:24:55;;;;;;;;;;;;;;;24.30;66.03;99954.72;449087;117;921516;-74
2021/07/19 03:26:01;;;;;;;;;;;;;;;24.31;65.97;99956.37;449584;117;921492;-71
2021/07/19 03:27:05;;;;;;;;;;;;;;;24.33;65.94;99965.21;449031;119;924086;-70
2021/07/19 03:28:09;;;;;;;;;;;;;;;24.36;65.69;99959.02;448642;117;923503;-71
2021/07/19 03:29:13;;;;;;;;;;;;;;;24.39;65.62;99965.89;456119;115;922637;-73
2021/07/19 03:30:21;;;;;;;;;;;;;;;24.41;65.54;99963.61;454641;115;922734;-73
2021/07/19 03:31:27;;;;;;;;;;;;;;;24.43;65.46;99962.13;456142;115;922693;-74
2021/07/19 03:32:32;;;;;;;;;;;;;;;24.45;65.40;99957.07;456488;115;921549;-75
2021/07/19 03:33:41;;;;;;;;;;;;;;;24.48;65.39;99963.95;455884;115;921904;-73
2021/07/19 03:34:44;;;;;;;;;;;;;;;24.51;65.41;99963.32;456596;115;921525;-72
2021/07/19 03:35:48;;;;;;;;;;;;;;;24.54;65.41;99971.02;456573;115;921556;-71
2021/07/19 03:36:53;;;;;;;;;;;;;;;24.57;65.31;99961.21;454943;115;921780;-72
2021/07/19 03:37:58;;;;;;;;;;;;;;;24.58;65.25;99965.64;456712;115;921665;-73
2021/07/19 03:39:04;;;;;;;;;;;;;;;24.60;65.25;99963.34;456546;115;921612;-72
2021/07/19 03:40:28;;;;;;;;;;;;;;;24.62;65.25;99961.89;430551;117;921769;-72
2021/07/19 03:41:34;;;;;;;;;;;;;;;24.66;65.24;99959.27;445897;117;922710;-69
2021/07/19 03:42:39;;;;;;;;;;;;;;;24.67;65.23;99964.52;444720;118;922601;-72
2021/07/19 03:43:44;;;;;;;;;;;;;;;24.70;65.27;99963.86;442641;118;922706;-72
2021/07/19 03:44:49;;;;;;;;;;;;;;;24.73;65.27;99967.98;448237;116;922733;-73
2021/07/19 03:45:52;;;;;;;;;;;;;;;24.77;65.28;99971.77;453420;115;922595;-72
2021/07/19 03:46:57;;;;;;;;;;;;;;;24.78;65.27;99965.87;454373;115;922722;-73
2021/07/19 03:48:02;;;;;;;;;;;;;;;24.80;65.22;99965.55;454605;115;922655;-74
2021/07/19 03:49:11;;;;;;;;;;;;;;;24.82;65.11;99966.03;454500;115;922670;-76
2021/07/19 03:50:15;;;;;;;;;;;;;;;24.86;65.06;99969.84;453925;116;922676;-72
2021/07/19 03:51:21;;;;;;;;;;;;;;;24.88;65.02;99964.77;453336;115;922671;-72
2021/07/19 03:52:26;;;;;;;;;;;;;;;24.91;64.86;99966.92;453338;117;922596;-72
2021/07/19 03:53:30;;;;;;;;;;;;;;;24.94;64.77;99963.47;454246;115;923637;-73
2021/07/19 03:54:35;;;;;;;;;;;;;;;24.97;64.74;99971.20;454144;115;922697;-72
2021/07/19 03:55:40;;;;;;;;;;;;;;;25.00;64.67;99966.93;453899;115;922500;-74
2021/07/19 03:56:44;;;;;;;;;;;;;;;25.03;64.59;99971.88;452168;116;922672;-74
2021/07/19 03:57:51;;;;;;;;;;;;;;;25.05;64.45;99964.80;445651;118;921634;-72
2021/07/19 03:58:56;;;;;;;;;;;;;;;25.08;64.40;99975.33;445565;118;922682;-71
2021/07/19 04:00:01;;;;;;;;;;;;;;;25.11;64.31;99969.08;444855;118;923132;-73
2021/07/19 04:01:07;;;;;;;;;;;;;;;25.14;64.14;99962.84;443798;118;922892;-72
2021/07/19 04:02:14;;;;;;;;;;;;;;;25.17;64.09;99976.16;444763;118;923487;-72
2021/07/19 04:03:24;;;;;;;;;;;;;;;25.20;64.00;99974.66;444638;118;923508;-72
2021/07/19 04:04:39;;;;;;;;;;;;;;;25.22;63.97;99975.99;444167;118;923120;-72
2021/07/19 04:05:40;;;;;;;;;;;;;;;25.25;63.83;99971.73;443508;118;922503;-71
2021/07/19 04:06:41;;;;;;;;;;;;;;;25.26;63.71;99973.36;438906;119;923018;-74
2021/07/19 04:07:46;;;;;;;;;;;;;;;25.28;63.72;99979.44;444397;118;921603;-72
2021/07/19 04:08:50;;;;;;;;;;;;;;;25.28;63.75;99966.31;439145;120;922744;-72
2021/07/19 04:09:55;;;;;;;;;;;;;;;25.31;63.68;99973.19;444318;118;922574;-74
2021/07/19 04:11:00;;;;;;;;;;;;;;;25.32;63.68;99978.45;442546;118;921548;-73
2021/07/19 04:12:04;;;;;;;;;;;;;;;25.34;63.66;99970.59;438295;120;921573;-71
2021/07/19 04:13:08;;;;;;;;;;;;;;;25.37;63.71;99976.64;435826;120;921581;-73
2021/07/19 04:14:13;;;;;;;;;;;;;;;25.38;63.75;99970.74;436456;120;921461;-73
2021/07/19 04:15:16;;;;;;;;;;;;;;;25.40;63.76;99970.42;432250;122;921573;-74
2021/07/19 04:16:20;;;;;;;;;;;;;;;25.43;63.71;99966.96;427036;122;921665;-71
2021/07/19 04:17:24;;;;;;;;;;;;;;;25.45;63.49;99973.05;433069;120;921726;-73
2021/07/19 04:18:27;;;;;;;;;;;;;;;25.46;63.44;99972.73;440630;119;921495;-73
2021/07/19 04:19:31;;;;;;;;;;;;;;;25.47;63.39;99974.34;441113;119;921511;-73
2021/07/19 04:20:35;;;;;;;;;;;;;;;25.50;63.27;99970.91;440501;119;921523;-73
2021/07/19 04:21:39;;;;;;;;;;;;;;;25.53;63.19;99972.21;440072;119;921642;-73
2021/07/19 04:22:43;;;;;;;;;;;;;;;25.55;63.15;99973.53;440166;120;923046;-74
2021/07/19 04:23:49;;;;;;;;;;;;;;;25.57;63.16;99962.91;441427;119;922761;-73
2021/07/19 04:25:02;;;;;;;;;;;;;;;25.60;63.13;99964.20;437884;117;922737;-72
2021/07/19 04:26:06;;;;;;;;;;;;;;;25.61;63.10;99969.47;438794;120;922820;-72
2021/07/19 04:27:11;;;;;;;;;;;;;;;25.64;62.96;99965.17;439815;119;925649;-75
2021/07/19 04:28:15;;;;;;;;;;;;;;;25.65;62.79;99959.27;439893;118;923799;-73
2021/07/19 04:29:22;;;;;;;;;;;;;;;25.68;62.67;99967.00;439596;119;923213;-72
2021/07/19 04:30:34;;;;;;;;;;;;;;;25.71;62.64;99969.13;439851;119;922714;-71
2021/07/19 04:31:38;;;;;;;;;;;;;;;25.73;62.56;99963.22;432485;120;922797;-73
2021/07/19 04:32:47;;;;;;;;;;;;;;;25.76;62.51;99970.91;432988;120;922741;-72
2021/07/19 04:33:51;;;;;;;;;;;;;;;25.77;62.53;99972.56;440051;119;922717;-73
2021/07/19 04:34:56;;;;;;;;;;;;;;;25.81;62.41;99976.33;444187;118;922725;-71
2021/07/19 04:35:59;;;;;;;;;;;;;;;25.83;62.43;99968.45;445738;118;923492;-73
2021/07/19 04:37:09;;;;;;;;;;;;;;;25.85;62.42;99971.75;444830;117;922676;-74
2021/07/19 04:38:15;;;;;;;;;;;;;;;25.87;62.45;99971.39;445183;117;923175;-73
2021/07/19 04:39:18;;;;;;;;;;;;;;;25.89;62.48;99971.89;427373;122;922761;-73
2021/07/19 04:40:23;;;;;;;;;;;;;;;25.90;62.56;99962.36;427416;122;923438;-73
2021/07/19 04:41:29;;;;;;;;;;;;;;;25.93;62.56;99959.72;437128;121;922874;-73
2021/07/19 04:42:32;;;;;;;;;;;;;;;25.95;62.46;99959.39;436739;120;922652;-72
2021/07/19 04:43:35;;;;;;;;;;;;;;;25.96;62.29;99961.86;436238;120;923118;-73
2021/07/19 04:44:39;;;;;;;;;;;;;;;25.99;62.30;99960.36;433501;120;923099;-72
2021/07/19 04:45:44;;;;;;;;;;;;;;;26.00;62.25;99960.04;444953;118;922730;-72
2021/07/19 04:46:50;;;;;;;;;;;;;;;26.03;62.17;99961.33;444354;118;923101;-73
2021/07/19 04:47:53;;;;;;;;;;;;;;;26.05;62.14;99965.45;444635;119;922655;-73
2021/07/19 04:48:57;;;;;;;;;;;;;;;26.07;62.05;99960.36;444771;118;922708;-73
2021/07/19 04:50:00;;;;;;;;;;;;;;;26.09;62.03;99969.20;445089;119;922680;-71
2021/07/19 04:51:04;;;;;;;;;;;;;;;26.11;62.04;99969.70;444562;118;922689;-73
2021/07/19 04:52:08;;;;;;;;;;;;;;;26.15;62.07;99965.09;444118;118;923222;-72
2021/07/19 04:53:11;;;;;;;;;;;;;;;26.16;62.02;99965.91;444626;118;922759;-71
2021/07/19 04:54:22;;;;;;;;;;;;;;;26.19;61.90;99961.64;445223;119;923386;-72
2021/07/19 04:55:26;;;;;;;;;;;;;;;26.21;61.83;99959.31;445331;118;923123;-73
2021/07/19 04:56:31;;;;;;;;;;;;;;;26.23;61.80;99960.67;445135;118;923214;-72
2021/07/19 04:57:35;;;;;;;;;;;;;;;26.24;61.76;99955.90;451689;116;922759;-71
2021/07/19 04:58:40;;;;;;;;;;;;;;;26.27;61.64;99955.22;453969;115;922657;-72
2021/07/19 04:59:48;;;;;;;;;;;;;;;26.28;61.32;99962.45;453623;115;922756;-73
2021/07/19 05:00:52;;;;;;;;;;;;;;;26.30;61.20;99955.36;454284;116;922673;-71
2021/07/19 05:01:58;;;;;;;;;;;;;;;26.32;61.23;99958.65;454623;117;922666;-73
2021/07/19 05:03:04;;;;;;;;;;;;;;;26.34;61.08;99953.55;454456;115;921460;-73
2021/07/19 05:04:09;;;;;;;;;;;;;;;26.36;60.69;99956.00;452902;115;921581;-72
2021/07/19 05:05:14;;;;;;;;;;;;;;;26.38;60.41;99962.08;454431;115;921586;-73
2021/07/19 05:06:18;;;;;;;;;;;;;;;26.40;60.31;99956.98;453700;117;921387;-74
2021/07/19 05:07:23;;;;;;;;;;;;;;;26.42;60.38;99963.05;452007;117;921692;-72
2021/07/19 05:08:28;;;;;;;;;;;;;;;26.44;60.08;99957.95;453575;115;921628;-74
2021/07/19 05:09:33;;;;;;;;;;;;;;;26.46;60.06;99959.23;453522;116;921453;-73
2021/07/19 05:10:39;;;;;;;;;;;;;;;26.48;60.10;99958.91;453333;117;921582;-73
2021/07/19 05:11:43;;;;;;;;;;;;;;;26.50;59.73;99954.64;453380;117;923046;-73
2021/07/19 05:12:49;;;;;;;;;;;;;;;26.52;59.84;99946.71;453398;115;922722;-74
2021/07/19 05:13:53;;;;;;;;;;;;;;;26.55;59.84;99950.83;454074;115;922712;-71
2021/07/19 05:14:57;;;;;;;;;;;;;;;26.57;59.91;99959.70;453673;115;923296;-71
2021/07/19 05:16:01;;;;;;;;;;;;;;;26.58;60.11;99958.53;454111;117;923072;-73
2021/07/19 05:17:04;;;;;;;;;;;;;;;26.60;60.15;99958.20;453595;116;922690;-73
2021/07/19 05:18:09;;;;;;;;;;;;;;;26.62;60.04;99959.52;454705;115;921753;-76
2021/07/19 05:19:13;;;;;;;;;;;;;;;26.63;59.92;99960.34;454007;117;922689;-76
2021/07/19 05:20:18;;;;;;;;;;;;;;;26.64;59.87;99948.80;454250;117;922705;-76
2021/07/19 05:21:22;;;;;;;;;;;;;;;26.67;59.75;99950.94;454019;115;923034;-75
2021/07/19 05:22:26;;;;;;;;;;;;;;;26.69;59.86;99953.38;453420;117;922841;-75
2021/07/19 05:23:29;;;;;;;;;;;;;;;26.72;59.99;99953.53;454441;115;923548;-75
2021/07/19 05:24:33;;;;;;;;;;;;;;;26.74;60.08;99950.41;454473;117;922511;-76
2021/07/19 05:25:36;;;;;;;;;;;;;;;26.76;60.04;99950.88;454632;116;922670;-75
2021/07/19 05:26:40;;;;;;;;;;;;;;;26.77;60.11;99956.14;452971;115;922639;-76
2021/07/19 05:27:45;;;;;;;;;;;;;;;26.80;59.86;99958.25;453695;115;922736;-76
2021/07/19 05:28:48;;;;;;;;;;;;;;;26.83;59.85;99954.79;450930;115;921679;-75
2021/07/19 05:29:52;;;;;;;;;;;;;;;26.85;59.31;99952.45;453576;115;922656;-75
2021/07/19 05:30:55;;;;;;;;;;;;;;;26.86;59.00;99953.28;453903;115;922724;-76
2021/07/19 05:31:58;;;;;;;;;;;;;;;26.88;58.54;99951.83;453553;117;922430;-75
2021/07/19 05:33:02;;;;;;;;;;;;;;;26.90;58.58;99955.12;453200;116;922669;-75
2021/07/19 05:34:05;;;;;;;;;;;;;;;26.93;58.51;99950.80;453646;115;922718;-76
2021/07/19 05:35:09;;;;;;;;;;;;;;;26.95;58.14;99949.32;453732;115;923586;-77